sensor_id;sensor_type;location;lat;lon;timestamp;temperature;humidity
15556;DHT22;7879;48.660;9.116;2023-08-20T00:00:14;21.70;99.90
15556;DHT22;7879;48.660;9.116;2023-08-20T00:02:43;21.60;99.90
15556;DHT22;7879;48.660;9.116;2023-08-20T00:05:10;21.50;99.90
15556;DHT22;7879;48.660;9.116;2023-08-20T00:07:38;21.40;99.90
15556;DHT22;7879;48.660;9.116;2023-08-20T00:10:05;21.40;99.90
15556;DHT22;7879;48.660;9.116;2023-08-20T00:12:32;21.40;99.90
15556;DHT22;7879;48.660;9.116;2023-08-20T00:15:01;21.40;99.90
15556;DHT22;7879;48.660;9.116;2023-08-20T00:17:36;21.40;99.90
15556;DHT22;7879;48.660;9.116;2023-08-20T00:20:05;21.40;99.90
15556;DHT22;7879;48.660;9.116;2023-08-20T00:22:37;21.30;99.90
15556;DHT22;7879;48.660;9.116;2023-08-20T00:25:04;21.30;99.90
15556;DHT22;7879;48.660;9.116;2023-08-20T00:27:32;21.30;99.90
15556;DHT22;7879;48.660;9.116;2023-08-20T00:29:59;21.20;99.90
15556;DHT22;7879;48.660;9.116;2023-08-20T00:32:26;21.20;99.90
15556;DHT22;7879;48.660;9.116;2023-08-20T00:34:53;21.20;99.90
15556;DHT22;7879;48.660;9.116;2023-08-20T00:37:20;21.20;99.90
15556;DHT22;7879;48.660;9.116;2023-08-20T00:39:47;21.20;99.90
15556;DHT22;7879;48.660;9.116;2023-08-20T00:42:14;21.10;99.90
15556;DHT22;7879;48.660;9.116;2023-08-20T00:44:41;21.10;99.90
15556;DHT22;7879;48.660;9.116;2023-08-20T00:47:12;21.00;99.90
15556;DHT22;7879;48.660;9.116;2023-08-20T00:49:39;21.00;99.90
15556;DHT22;7879;48.660;9.116;2023-08-20T00:52:09;20.90;99.90
15556;DHT22;7879;48.660;9.116;2023-08-20T00:54:36;20.90;99.90
15556;DHT22;7879;48.660;9.116;2023-08-20T00:57:03;20.90;99.90
15556;DHT22;7879;48.660;9.116;2023-08-20T00:59:32;21.00;99.90
15556;DHT22;7879;48.660;9.116;2023-08-20T01:02:00;20.90;99.90
15556;DHT22;7879;48.660;9.116;2023-08-20T01:04:28;20.90;99.90
15556;DHT22;7879;48.660;9.116;2023-08-20T01:12:27;20.90;99.90
15556;DHT22;7879;48.660;9.116;2023-08-20T01:14:55;20.90;99.90
15556;DHT22;7879;48.660;9.116;2023-08-20T01:17:22;20.90;99.90
15556;DHT22;7879;48.660;9.116;2023-08-20T01:19:49;20.90;99.90
15556;DHT22;7879;48.660;9.116;2023-08-20T01:22:43;20.80;99.90
15556;DHT22;7879;48.660;9.116;2023-08-20T01:30:19;20.70;99.90
15556;DHT22;7879;48.660;9.116;2023-08-20T01:32:49;20.70;99.90
15556;DHT22;7879;48.660;9.116;2023-08-20T01:35:17;20.60;99.90
15556;DHT22;7879;48.660;9.116;2023-08-20T01:37:44;20.60;99.90
15556;DHT22;7879;48.660;9.116;2023-08-20T01:40:11;20.60;99.90
15556;DHT22;7879;48.660;9.116;2023-08-20T01:42:39;20.60;99.90
15556;DHT22;7879;48.660;9.116;2023-08-20T01:45:07;20.50;99.90
15556;DHT22;7879;48.660;9.116;2023-08-20T01:47:34;20.50;99.90
15556;DHT22;7879;48.660;9.116;2023-08-20T01:50:02;20.50;99.90
15556;DHT22;7879;48.660;9.116;2023-08-20T01:52:32;20.40;99.90
15556;DHT22;7879;48.660;9.116;2023-08-20T01:55:00;20.30;99.90
15556;DHT22;7879;48.660;9.116;2023-08-20T01:57:26;20.30;99.90
15556;DHT22;7879;48.660;9.116;2023-08-20T01:59:53;20.30;99.90
15556;DHT22;7879;48.660;9.116;2023-08-20T02:02:20;20.30;99.90
15556;DHT22;7879;48.660;9.116;2023-08-20T02:04:47;20.30;99.90
15556;DHT22;7879;48.660;9.116;2023-08-20T02:07:14;20.20;99.90
15556;DHT22;7879;48.660;9.116;2023-08-20T02:09:41;20.20;99.90
15556;DHT22;7879;48.660;9.116;2023-08-20T02:12:08;20.20;99.90
15556;DHT22;7879;48.660;9.116;2023-08-20T02:14:35;20.20;99.90
15556;DHT22;7879;48.660;9.116;2023-08-20T02:17:02;20.10;99.90
15556;DHT22;7879;48.660;9.116;2023-08-20T02:19:29;20.10;99.90
15556;DHT22;7879;48.660;9.116;2023-08-20T02:21:56;20.10;99.90
15556;DHT22;7879;48.660;9.116;2023-08-20T02:24:23;20.00;99.90
15556;DHT22;7879;48.660;9.116;2023-08-20T02:26:50;20.00;99.90
15556;DHT22;7879;48.660;9.116;2023-08-20T02:29:17;19.90;99.90
15556;DHT22;7879;48.660;9.116;2023-08-20T02:31:44;20.00;99.90
15556;DHT22;7879;48.660;9.116;2023-08-20T02:34:10;20.00;99.90
15556;DHT22;7879;48.660;9.116;2023-08-20T02:36:37;19.90;99.90
15556;DHT22;7879;48.660;9.116;2023-08-20T02:39:04;19.90;99.90
15556;DHT22;7879;48.660;9.116;2023-08-20T02:41:34;19.90;99.90
15556;DHT22;7879;48.660;9.116;2023-08-20T02:44:04;20.00;99.90
15556;DHT22;7879;48.660;9.116;2023-08-20T02:46:31;19.90;99.90
15556;DHT22;7879;48.660;9.116;2023-08-20T02:48:58;19.90;99.90
15556;DHT22;7879;48.660;9.116;2023-08-20T02:51:25;19.90;99.90
15556;DHT22;7879;48.660;9.116;2023-08-20T02:53:51;19.80;99.90
15556;DHT22;7879;48.660;9.116;2023-08-20T02:56:18;19.80;99.90
15556;DHT22;7879;48.660;9.116;2023-08-20T02:58:45;19.70;99.90
15556;DHT22;7879;48.660;9.116;2023-08-20T03:01:22;19.70;99.90
15556;DHT22;7879;48.660;9.116;2023-08-20T03:03:49;19.70;99.90
15556;DHT22;7879;48.660;9.116;2023-08-20T03:06:17;19.60;99.90
15556;DHT22;7879;48.660;9.116;2023-08-20T03:08:43;19.60;99.90
15556;DHT22;7879;48.660;9.116;2023-08-20T03:11:10;19.60;99.90
15556;DHT22;7879;48.660;9.116;2023-08-20T03:13:37;19.60;99.90
15556;DHT22;7879;48.660;9.116;2023-08-20T03:16:04;19.50;99.90
15556;DHT22;7879;48.660;9.116;2023-08-20T03:18:31;19.50;99.90
15556;DHT22;7879;48.660;9.116;2023-08-20T03:20:58;19.50;99.90
15556;DHT22;7879;48.660;9.116;2023-08-20T03:23:24;19.50;99.90
15556;DHT22;7879;48.660;9.116;2023-08-20T03:25:51;19.50;99.90
15556;DHT22;7879;48.660;9.116;2023-08-20T03:28:18;19.50;99.90
15556;DHT22;7879;48.660;9.116;2023-08-20T03:30:46;19.50;99.90
15556;DHT22;7879;48.660;9.116;2023-08-20T03:33:12;19.50;99.90
15556;DHT22;7879;48.660;9.116;2023-08-20T03:35:39;19.30;99.90
15556;DHT22;7879;48.660;9.116;2023-08-20T03:38:06;19.30;99.90
15556;DHT22;7879;48.660;9.116;2023-08-20T03:40:33;19.40;99.90
15556;DHT22;7879;48.660;9.116;2023-08-20T03:42:59;19.30;99.90
15556;DHT22;7879;48.660;9.116;2023-08-20T03:45:27;19.30;99.90
15556;DHT22;7879;48.660;9.116;2023-08-20T03:47:54;19.30;99.90
15556;DHT22;7879;48.660;9.116;2023-08-20T03:50:21;19.30;99.90
15556;DHT22;7879;48.660;9.116;2023-08-20T03:52:48;19.30;99.90
15556;DHT22;7879;48.660;9.116;2023-08-20T03:55:14;19.30;99.90
15556;DHT22;7879;48.660;9.116;2023-08-20T03:57:41;19.30;99.90
15556;DHT22;7879;48.660;9.116;2023-08-20T04:00:12;19.30;99.90
15556;DHT22;7879;48.660;9.116;2023-08-20T04:02:38;19.30;99.90
15556;DHT22;7879;48.660;9.116;2023-08-20T04:05:05;19.30;99.90
15556;DHT22;7879;48.660;9.116;2023-08-20T04:07:32;19.30;99.90
15556;DHT22;7879;48.660;9.116;2023-08-20T04:10:00;19.20;99.90
15556;DHT22;7879;48.660;9.116;2023-08-20T04:12:26;19.20;99.90
15556;DHT22;7879;48.660;9.116;2023-08-20T04:14:53;19.10;99.90
15556;DHT22;7879;48.660;9.116;2023-08-20T04:17:20;19.20;99.90
15556;DHT22;7879;48.660;9.116;2023-08-20T04:19:47;19.20;99.90
15556;DHT22;7879;48.660;9.116;2023-08-20T04:22:13;19.20;99.90
15556;DHT22;7879;48.660;9.116;2023-08-20T04:24:40;19.10;99.90
15556;DHT22;7879;48.660;9.116;2023-08-20T04:27:07;19.10;99.90
15556;DHT22;7879;48.660;9.116;2023-08-20T04:29:34;19.10;99.90
15556;DHT22;7879;48.660;9.116;2023-08-20T04:32:01;19.00;99.90
15556;DHT22;7879;48.660;9.116;2023-08-20T04:34:27;19.00;99.90
15556;DHT22;7879;48.660;9.116;2023-08-20T04:36:54;18.90;99.90
15556;DHT22;7879;48.660;9.116;2023-08-20T04:39:21;18.90;99.90
15556;DHT22;7879;48.660;9.116;2023-08-20T04:41:48;18.90;99.90
15556;DHT22;7879;48.660;9.116;2023-08-20T04:44:15;18.90;99.90
15556;DHT22;7879;48.660;9.116;2023-08-20T04:46:42;18.90;99.90
15556;DHT22;7879;48.660;9.116;2023-08-20T04:49:09;18.80;99.90
15556;DHT22;7879;48.660;9.116;2023-08-20T04:51:36;18.80;99.90
15556;DHT22;7879;48.660;9.116;2023-08-20T04:54:03;18.80;99.90
15556;DHT22;7879;48.660;9.116;2023-08-20T04:56:30;18.90;99.90
15556;DHT22;7879;48.660;9.116;2023-08-20T04:58:57;18.80;99.90
15556;DHT22;7879;48.660;9.116;2023-08-20T05:01:24;18.90;99.90
15556;DHT22;7879;48.660;9.116;2023-08-20T05:03:50;18.90;99.90
15556;DHT22;7879;48.660;9.116;2023-08-20T05:06:17;18.90;99.90
15556;DHT22;7879;48.660;9.116;2023-08-20T05:08:44;18.90;99.90
15556;DHT22;7879;48.660;9.116;2023-08-20T05:11:11;18.90;99.90
15556;DHT22;7879;48.660;9.116;2023-08-20T05:13:38;18.90;99.90
15556;DHT22;7879;48.660;9.116;2023-08-20T05:16:04;18.90;99.90
15556;DHT22;7879;48.660;9.116;2023-08-20T05:18:31;18.90;99.90
15556;DHT22;7879;48.660;9.116;2023-08-20T05:20:58;18.90;99.90
15556;DHT22;7879;48.660;9.116;2023-08-20T05:23:25;18.90;99.90
15556;DHT22;7879;48.660;9.116;2023-08-20T05:25:51;19.00;99.90
15556;DHT22;7879;48.660;9.116;2023-08-20T05:28:18;19.00;99.90
15556;DHT22;7879;48.660;9.116;2023-08-20T05:30:55;19.00;99.90
15556;DHT22;7879;48.660;9.116;2023-08-20T05:33:23;19.10;99.90
15556;DHT22;7879;48.660;9.116;2023-08-20T05:35:50;19.20;99.90
15556;DHT22;7879;48.660;9.116;2023-08-20T05:38:17;19.20;99.90
15556;DHT22;7879;48.660;9.116;2023-08-20T05:40:44;19.30;99.90
15556;DHT22;7879;48.660;9.116;2023-08-20T05:43:11;19.30;99.90
15556;DHT22;7879;48.660;9.116;2023-08-20T05:45:37;19.30;99.90
15556;DHT22;7879;48.660;9.116;2023-08-20T05:48:04;19.30;99.90
15556;DHT22;7879;48.660;9.116;2023-08-20T05:50:31;19.30;99.90
15556;DHT22;7879;48.660;9.116;2023-08-20T05:52:58;19.30;99.90
15556;DHT22;7879;48.660;9.116;2023-08-20T05:55:25;19.30;99.90
15556;DHT22;7879;48.660;9.116;2023-08-20T05:57:52;19.30;99.90
15556;DHT22;7879;48.660;9.116;2023-08-20T06:00:18;19.40;99.90
15556;DHT22;7879;48.660;9.116;2023-08-20T06:02:45;19.40;99.90
15556;DHT22;7879;48.660;9.116;2023-08-20T06:05:12;19.40;99.90
15556;DHT22;7879;48.660;9.116;2023-08-20T06:07:40;19.50;99.90
15556;DHT22;7879;48.660;9.116;2023-08-20T06:10:07;19.50;99.90
15556;DHT22;7879;48.660;9.116;2023-08-20T06:12:34;19.60;99.90
15556;DHT22;7879;48.660;9.116;2023-08-20T06:15:01;19.70;99.90
15556;DHT22;7879;48.660;9.116;2023-08-20T06:17:28;19.70;99.90
15556;DHT22;7879;48.660;9.116;2023-08-20T06:19:55;19.80;99.90
15556;DHT22;7879;48.660;9.116;2023-08-20T06:22:22;19.90;99.90
15556;DHT22;7879;48.660;9.116;2023-08-20T06:24:49;20.00;99.90
15556;DHT22;7879;48.660;9.116;2023-08-20T06:27:15;20.00;99.90
15556;DHT22;7879;48.660;9.116;2023-08-20T06:29:42;20.20;99.90
15556;DHT22;7879;48.660;9.116;2023-08-20T06:32:09;20.20;99.90
15556;DHT22;7879;48.660;9.116;2023-08-20T06:34:36;20.30;99.90
15556;DHT22;7879;48.660;9.116;2023-08-20T06:37:03;20.40;99.90
15556;DHT22;7879;48.660;9.116;2023-08-20T06:39:30;20.40;99.90
15556;DHT22;7879;48.660;9.116;2023-08-20T06:41:57;20.50;99.90
15556;DHT22;7879;48.660;9.116;2023-08-20T06:44:24;20.60;99.90
15556;DHT22;7879;48.660;9.116;2023-08-20T06:46:51;20.60;99.90
15556;DHT22;7879;48.660;9.116;2023-08-20T06:49:17;20.70;99.90
15556;DHT22;7879;48.660;9.116;2023-08-20T06:51:44;20.80;99.90
15556;DHT22;7879;48.660;9.116;2023-08-20T06:54:11;20.90;99.90
15556;DHT22;7879;48.660;9.116;2023-08-20T06:56:38;20.90;99.90
15556;DHT22;7879;48.660;9.116;2023-08-20T06:59:05;21.00;99.90
15556;DHT22;7879;48.660;9.116;2023-08-20T07:01:31;21.10;99.90
15556;DHT22;7879;48.660;9.116;2023-08-20T07:03:59;21.20;99.90
15556;DHT22;7879;48.660;9.116;2023-08-20T07:06:28;21.30;99.90
15556;DHT22;7879;48.660;9.116;2023-08-20T07:08:55;21.40;99.90
15556;DHT22;7879;48.660;9.116;2023-08-20T07:11:22;21.50;99.90
15556;DHT22;7879;48.660;9.116;2023-08-20T07:13:48;21.60;99.90
15556;DHT22;7879;48.660;9.116;2023-08-20T07:16:15;21.70;99.90
15556;DHT22;7879;48.660;9.116;2023-08-20T07:18:42;21.80;99.90
15556;DHT22;7879;48.660;9.116;2023-08-20T07:21:09;21.90;99.90
15556;DHT22;7879;48.660;9.116;2023-08-20T07:23:36;21.90;99.90
15556;DHT22;7879;48.660;9.116;2023-08-20T07:26:09;22.00;99.90
15556;DHT22;7879;48.660;9.116;2023-08-20T07:28:37;22.10;99.90
15556;DHT22;7879;48.660;9.116;2023-08-20T07:33:51;22.30;99.90
15556;DHT22;7879;48.660;9.116;2023-08-20T07:36:18;22.30;99.90
15556;DHT22;7879;48.660;9.116;2023-08-20T07:38:45;22.40;99.90
15556;DHT22;7879;48.660;9.116;2023-08-20T07:41:12;22.50;99.90
15556;DHT22;7879;48.660;9.116;2023-08-20T07:43:39;22.50;99.90
15556;DHT22;7879;48.660;9.116;2023-08-20T07:46:07;22.60;99.90
15556;DHT22;7879;48.660;9.116;2023-08-20T07:48:35;22.70;99.90
15556;DHT22;7879;48.660;9.116;2023-08-20T07:51:02;22.70;99.90
15556;DHT22;7879;48.660;9.116;2023-08-20T07:53:30;22.80;99.90
15556;DHT22;7879;48.660;9.116;2023-08-20T07:55:57;22.90;99.90
15556;DHT22;7879;48.660;9.116;2023-08-20T07:58:24;23.00;99.90
15556;DHT22;7879;48.660;9.116;2023-08-20T08:00:53;23.00;99.90
15556;DHT22;7879;48.660;9.116;2023-08-20T08:03:20;23.00;99.90
15556;DHT22;7879;48.660;9.116;2023-08-20T08:05:47;23.10;99.90
15556;DHT22;7879;48.660;9.116;2023-08-20T08:08:18;23.20;99.90
15556;DHT22;7879;48.660;9.116;2023-08-20T08:10:46;23.30;99.90
15556;DHT22;7879;48.660;9.116;2023-08-20T08:13:14;23.30;99.90
15556;DHT22;7879;48.660;9.116;2023-08-20T08:15:41;23.30;99.90
15556;DHT22;7879;48.660;9.116;2023-08-20T08:18:08;23.40;99.90
15556;DHT22;7879;48.660;9.116;2023-08-20T08:20:35;23.50;99.90
15556;DHT22;7879;48.660;9.116;2023-08-20T08:23:01;23.50;99.90
15556;DHT22;7879;48.660;9.116;2023-08-20T08:25:29;23.70;99.90
15556;DHT22;7879;48.660;9.116;2023-08-20T08:27:55;23.70;99.90
15556;DHT22;7879;48.660;9.116;2023-08-20T08:30:26;23.80;99.90
15556;DHT22;7879;48.660;9.116;2023-08-20T08:32:53;24.00;99.90
15556;DHT22;7879;48.660;9.116;2023-08-20T08:35:20;24.10;99.90
15556;DHT22;7879;48.660;9.116;2023-08-20T08:37:47;24.20;99.90
15556;DHT22;7879;48.660;9.116;2023-08-20T08:40:14;24.40;99.90
15556;DHT22;7879;48.660;9.116;2023-08-20T08:42:41;24.50;99.90
15556;DHT22;7879;48.660;9.116;2023-08-20T08:45:11;24.60;99.90
15556;DHT22;7879;48.660;9.116;2023-08-20T08:47:39;24.70;99.90
15556;DHT22;7879;48.660;9.116;2023-08-20T08:50:07;24.80;99.90
15556;DHT22;7879;48.660;9.116;2023-08-20T08:52:37;24.90;99.90
15556;DHT22;7879;48.660;9.116;2023-08-20T08:55:05;25.00;99.90
15556;DHT22;7879;48.660;9.116;2023-08-20T08:57:36;25.10;99.90
15556;DHT22;7879;48.660;9.116;2023-08-20T09:00:04;25.20;99.90
15556;DHT22;7879;48.660;9.116;2023-08-20T09:02:32;25.40;99.90
15556;DHT22;7879;48.660;9.116;2023-08-20T09:04:59;25.50;99.90
15556;DHT22;7879;48.660;9.116;2023-08-20T09:07:26;25.60;99.90
15556;DHT22;7879;48.660;9.116;2023-08-20T09:09:58;25.70;99.90
15556;DHT22;7879;48.660;9.116;2023-08-20T09:12:26;25.90;99.90
15556;DHT22;7879;48.660;9.116;2023-08-20T09:14:54;26.00;99.90
15556;DHT22;7879;48.660;9.116;2023-08-20T09:17:28;26.20;99.90
15556;DHT22;7879;48.660;9.116;2023-08-20T09:19:56;26.40;99.90
15556;DHT22;7879;48.660;9.116;2023-08-20T09:22:26;26.50;99.90
15556;DHT22;7879;48.660;9.116;2023-08-20T09:24:55;26.70;99.90
15556;DHT22;7879;48.660;9.116;2023-08-20T09:27:23;27.00;99.90
15556;DHT22;7879;48.660;9.116;2023-08-20T09:29:53;27.20;99.90
15556;DHT22;7879;48.660;9.116;2023-08-20T09:32:27;27.50;99.90
15556;DHT22;7879;48.660;9.116;2023-08-20T09:34:55;27.70;99.90
15556;DHT22;7879;48.660;9.116;2023-08-20T09:37:23;27.90;99.90
15556;DHT22;7879;48.660;9.116;2023-08-20T09:39:51;28.00;99.90
15556;DHT22;7879;48.660;9.116;2023-08-20T09:42:18;28.20;99.90
15556;DHT22;7879;48.660;9.116;2023-08-20T09:44:46;28.40;99.90
15556;DHT22;7879;48.660;9.116;2023-08-20T09:47:18;28.50;99.90
15556;DHT22;7879;48.660;9.116;2023-08-20T09:49:48;28.60;99.90
15556;DHT22;7879;48.660;9.116;2023-08-20T09:55:47;28.80;99.90
15556;DHT22;7879;48.660;9.116;2023-08-20T09:58:48;29.00;99.90
15556;DHT22;7879;48.660;9.116;2023-08-20T10:01:45;29.10;99.90
15556;DHT22;7879;48.660;9.116;2023-08-20T10:04:30;29.30;99.90
15556;DHT22;7879;48.660;9.116;2023-08-20T10:07:16;29.40;99.90
15556;DHT22;7879;48.660;9.116;2023-08-20T10:09:55;29.50;99.90
15556;DHT22;7879;48.660;9.116;2023-08-20T10:12:46;29.60;99.90
15556;DHT22;7879;48.660;9.116;2023-08-20T10:20:01;30.00;99.90
15556;DHT22;7879;48.660;9.116;2023-08-20T10:23:32;30.10;99.90
15556;DHT22;7879;48.660;9.116;2023-08-20T10:33:01;30.70;99.90
15556;DHT22;7879;48.660;9.116;2023-08-20T10:38:12;31.00;99.90
15556;DHT22;7879;48.660;9.116;2023-08-20T10:40:55;31.30;99.90
15556;DHT22;7879;48.660;9.116;2023-08-20T10:49:15;31.40;99.90
15556;DHT22;7879;48.660;9.116;2023-08-20T10:52:09;31.50;99.90
15556;DHT22;7879;48.660;9.116;2023-08-20T10:54:46;31.50;99.90
15556;DHT22;7879;48.660;9.116;2023-08-20T11:00:33;31.70;99.90
15556;DHT22;7879;48.660;9.116;2023-08-20T11:03:10;31.80;99.90
15556;DHT22;7879;48.660;9.116;2023-08-20T11:05:56;32.00;99.90
15556;DHT22;7879;48.660;9.116;2023-08-20T11:08:34;32.00;99.90
15556;DHT22;7879;48.660;9.116;2023-08-20T11:11:17;32.00;99.90
15556;DHT22;7879;48.660;9.116;2023-08-20T11:13:52;32.00;99.90
15556;DHT22;7879;48.660;9.116;2023-08-20T11:19:25;32.00;99.90
15556;DHT22;7879;48.660;9.116;2023-08-20T11:22:00;32.30;99.90
15556;DHT22;7879;48.660;9.116;2023-08-20T11:24:43;32.70;99.90
15556;DHT22;7879;48.660;9.116;2023-08-20T11:27:30;32.60;99.90
15556;DHT22;7879;48.660;9.116;2023-08-20T11:30:17;32.70;99.90
15556;DHT22;7879;48.660;9.116;2023-08-20T11:32:55;32.80;99.90
15556;DHT22;7879;48.660;9.116;2023-08-20T11:35:59;32.80;99.90
15556;DHT22;7879;48.660;9.116;2023-08-20T11:38:38;32.90;99.90
15556;DHT22;7879;48.660;9.116;2023-08-20T11:41:20;33.00;99.90
15556;DHT22;7879;48.660;9.116;2023-08-20T11:44:04;33.10;99.90
15556;DHT22;7879;48.660;9.116;2023-08-20T11:46:49;33.10;99.90
15556;DHT22;7879;48.660;9.116;2023-08-20T11:49:32;33.00;99.90
15556;DHT22;7879;48.660;9.116;2023-08-20T11:52:06;33.10;99.90
15556;DHT22;7879;48.660;9.116;2023-08-20T11:54:42;33.10;99.90
15556;DHT22;7879;48.660;9.116;2023-08-20T11:57:12;33.10;99.90
15556;DHT22;7879;48.660;9.116;2023-08-20T12:00:00;33.00;99.90
15556;DHT22;7879;48.660;9.116;2023-08-20T12:02:58;33.10;99.90
15556;DHT22;7879;48.660;9.116;2023-08-20T12:05:46;33.20;99.90
15556;DHT22;7879;48.660;9.116;2023-08-20T12:08:44;33.30;99.90
15556;DHT22;7879;48.660;9.116;2023-08-20T12:11:24;33.30;99.90
15556;DHT22;7879;48.660;9.116;2023-08-20T12:14:14;33.40;99.90
15556;DHT22;7879;48.660;9.116;2023-08-20T12:16:55;33.40;99.90
15556;DHT22;7879;48.660;9.116;2023-08-20T12:19:52;33.50;99.90
15556;DHT22;7879;48.660;9.116;2023-08-20T12:22:52;33.50;99.80
15556;DHT22;7879;48.660;9.116;2023-08-20T12:26:07;33.30;99.90
15556;DHT22;7879;48.660;9.116;2023-08-20T12:29:27;33.30;99.90
15556;DHT22;7879;48.660;9.116;2023-08-20T12:32:18;33.30;99.30
15556;DHT22;7879;48.660;9.116;2023-08-20T12:35:22;33.10;99.90
15556;DHT22;7879;48.660;9.116;2023-08-20T12:38:11;33.10;99.40
15556;DHT22;7879;48.660;9.116;2023-08-20T12:40:54;32.90;99.70
15556;DHT22;7879;48.660;9.116;2023-08-20T12:43:52;32.80;99.50
15556;DHT22;7879;48.660;9.116;2023-08-20T12:46:34;32.80;99.80
15556;DHT22;7879;48.660;9.116;2023-08-20T12:49:11;32.80;99.30
15556;DHT22;7879;48.660;9.116;2023-08-20T12:52:07;32.70;99.50
15556;DHT22;7879;48.660;9.116;2023-08-20T12:55:36;32.70;99.90
15556;DHT22;7879;48.660;9.116;2023-08-20T12:58:29;32.70;99.10
15556;DHT22;7879;48.660;9.116;2023-08-20T13:04:47;32.50;99.80
15556;DHT22;7879;48.660;9.116;2023-08-20T13:10:21;32.50;99.40
15556;DHT22;7879;48.660;9.116;2023-08-20T13:14:15;32.50;99.20
15556;DHT22;7879;48.660;9.116;2023-08-20T13:17:14;32.50;99.60
15556;DHT22;7879;48.660;9.116;2023-08-20T13:19:49;32.50;99.00
15556;DHT22;7879;48.660;9.116;2023-08-20T13:25:33;32.40;99.30
15556;DHT22;7879;48.660;9.116;2023-08-20T13:29:06;32.50;99.40
15556;DHT22;7879;48.660;9.116;2023-08-20T13:31:53;32.70;99.10
15556;DHT22;7879;48.660;9.116;2023-08-20T13:34:44;32.70;98.80
15556;DHT22;7879;48.660;9.116;2023-08-20T13:38:05;32.70;98.80
15556;DHT22;7879;48.660;9.116;2023-08-20T13:41:32;32.70;98.70
15556;DHT22;7879;48.660;9.116;2023-08-20T13:44:09;32.60;98.30
15556;DHT22;7879;48.660;9.116;2023-08-20T13:46:36;32.60;98.40
15556;DHT22;7879;48.660;9.116;2023-08-20T13:49:02;32.50;98.30
15556;DHT22;7879;48.660;9.116;2023-08-20T13:51:30;32.50;98.60
15556;DHT22;7879;48.660;9.116;2023-08-20T13:53:57;32.50;98.00
15556;DHT22;7879;48.660;9.116;2023-08-20T13:56:24;32.40;98.10
15556;DHT22;7879;48.660;9.116;2023-08-20T13:58:53;32.40;98.00
15556;DHT22;7879;48.660;9.116;2023-08-20T14:01:20;32.40;98.10
15556;DHT22;7879;48.660;9.116;2023-08-20T14:03:47;32.40;97.90
15556;DHT22;7879;48.660;9.116;2023-08-20T14:06:13;32.50;98.10
15556;DHT22;7879;48.660;9.116;2023-08-20T14:08:40;32.50;98.10
15556;DHT22;7879;48.660;9.116;2023-08-20T14:11:07;32.40;98.20
15556;DHT22;7879;48.660;9.116;2023-08-20T14:13:34;32.40;98.40
15556;DHT22;7879;48.660;9.116;2023-08-20T14:16:02;32.50;97.80
15556;DHT22;7879;48.660;9.116;2023-08-20T14:18:29;32.40;97.80
15556;DHT22;7879;48.660;9.116;2023-08-20T14:20:55;32.40;97.80
15556;DHT22;7879;48.660;9.116;2023-08-20T14:23:22;32.40;97.70
15556;DHT22;7879;48.660;9.116;2023-08-20T14:25:49;32.30;97.80
15556;DHT22;7879;48.660;9.116;2023-08-20T14:28:16;32.20;97.80
15556;DHT22;7879;48.660;9.116;2023-08-20T14:30:43;32.10;98.00
15556;DHT22;7879;48.660;9.116;2023-08-20T14:33:09;32.10;98.00
15556;DHT22;7879;48.660;9.116;2023-08-20T14:35:36;32.10;98.20
15556;DHT22;7879;48.660;9.116;2023-08-20T14:38:03;32.10;98.20
15556;DHT22;7879;48.660;9.116;2023-08-20T14:40:30;32.10;98.40
15556;DHT22;7879;48.660;9.116;2023-08-20T14:42:58;32.10;98.40
15556;DHT22;7879;48.660;9.116;2023-08-20T14:45:27;32.10;98.40
15556;DHT22;7879;48.660;9.116;2023-08-20T14:47:54;32.10;98.80
15556;DHT22;7879;48.660;9.116;2023-08-20T14:50:21;32.00;98.50
15556;DHT22;7879;48.660;9.116;2023-08-20T14:52:47;31.90;98.50
15556;DHT22;7879;48.660;9.116;2023-08-20T14:55:18;31.80;98.50
15556;DHT22;7879;48.660;9.116;2023-08-20T14:57:45;31.80;98.60
15556;DHT22;7879;48.660;9.116;2023-08-20T15:00:18;31.70;98.60
15556;DHT22;7879;48.660;9.116;2023-08-20T15:02:45;31.70;99.20
15556;DHT22;7879;48.660;9.116;2023-08-20T15:05:12;31.60;99.50
15556;DHT22;7879;48.660;9.116;2023-08-20T15:07:40;31.60;99.20
15556;DHT22;7879;48.660;9.116;2023-08-20T15:10:07;31.60;98.90
15556;DHT22;7879;48.660;9.116;2023-08-20T15:12:35;31.50;99.00
15556;DHT22;7879;48.660;9.116;2023-08-20T15:15:03;31.60;99.20
15556;DHT22;7879;48.660;9.116;2023-08-20T15:17:31;31.50;99.00
15556;DHT22;7879;48.660;9.116;2023-08-20T15:20:02;31.50;99.10
15556;DHT22;7879;48.660;9.116;2023-08-20T15:22:32;31.50;99.20
15556;DHT22;7879;48.660;9.116;2023-08-20T15:24:59;31.40;99.30
15556;DHT22;7879;48.660;9.116;2023-08-20T15:27:26;31.50;99.30
15556;DHT22;7879;48.660;9.116;2023-08-20T15:29:53;31.60;99.30
15556;DHT22;7879;48.660;9.116;2023-08-20T15:32:19;31.60;99.20
15556;DHT22;7879;48.660;9.116;2023-08-20T15:34:47;31.50;98.90
15556;DHT22;7879;48.660;9.116;2023-08-20T15:37:15;31.50;98.70
15556;DHT22;7879;48.660;9.116;2023-08-20T15:39:42;31.50;98.80
15556;DHT22;7879;48.660;9.116;2023-08-20T15:42:08;31.50;98.70
15556;DHT22;7879;48.660;9.116;2023-08-20T15:44:35;31.50;98.90
15556;DHT22;7879;48.660;9.116;2023-08-20T15:47:02;31.50;98.50
15556;DHT22;7879;48.660;9.116;2023-08-20T15:49:29;31.40;98.70
15556;DHT22;7879;48.660;9.116;2023-08-20T15:51:56;31.40;98.70
15556;DHT22;7879;48.660;9.116;2023-08-20T15:54:23;31.20;98.50
15556;DHT22;7879;48.660;9.116;2023-08-20T15:56:52;31.20;98.60
15556;DHT22;7879;48.660;9.116;2023-08-20T15:59:20;31.10;98.70
15556;DHT22;7879;48.660;9.116;2023-08-20T16:01:46;31.10;98.60
15556;DHT22;7879;48.660;9.116;2023-08-20T16:04:16;31.00;98.60
15556;DHT22;7879;48.660;9.116;2023-08-20T16:06:43;31.00;98.50
15556;DHT22;7879;48.660;9.116;2023-08-20T16:09:09;31.00;98.80
15556;DHT22;7879;48.660;9.116;2023-08-20T16:11:39;31.00;98.60
15556;DHT22;7879;48.660;9.116;2023-08-20T16:14:06;31.00;98.40
15556;DHT22;7879;48.660;9.116;2023-08-20T16:16:33;31.00;98.40
15556;DHT22;7879;48.660;9.116;2023-08-20T16:19:00;31.10;98.10
15556;DHT22;7879;48.660;9.116;2023-08-20T16:21:27;31.00;98.40
15556;DHT22;7879;48.660;9.116;2023-08-20T16:23:54;31.00;98.20
15556;DHT22;7879;48.660;9.116;2023-08-20T16:26:21;31.00;98.30
15556;DHT22;7879;48.660;9.116;2023-08-20T16:28:47;31.00;98.20
15556;DHT22;7879;48.660;9.116;2023-08-20T16:31:14;30.90;98.20
15556;DHT22;7879;48.660;9.116;2023-08-20T16:33:41;30.90;98.40
15556;DHT22;7879;48.660;9.116;2023-08-20T16:36:08;30.90;98.30
15556;DHT22;7879;48.660;9.116;2023-08-20T16:38:35;30.90;98.50
15556;DHT22;7879;48.660;9.116;2023-08-20T16:41:02;30.80;98.40
15556;DHT22;7879;48.660;9.116;2023-08-20T16:43:30;30.80;98.50
15556;DHT22;7879;48.660;9.116;2023-08-20T16:45:57;30.80;98.50
15556;DHT22;7879;48.660;9.116;2023-08-20T16:48:28;30.60;98.60
15556;DHT22;7879;48.660;9.116;2023-08-20T16:50:59;30.70;99.00
15556;DHT22;7879;48.660;9.116;2023-08-20T16:53:27;30.70;98.90
15556;DHT22;7879;48.660;9.116;2023-08-20T16:55:54;30.70;99.10
15556;DHT22;7879;48.660;9.116;2023-08-20T16:58:22;30.70;99.10
15556;DHT22;7879;48.660;9.116;2023-08-20T17:00:50;30.60;99.20
15556;DHT22;7879;48.660;9.116;2023-08-20T17:03:18;30.60;99.10